createdAt,value
2023-02-03T00:00:56.707Z,5.258178711
2023-02-03T00:01:58.227Z,5.258178711
2023-02-03T00:02:58.927Z,5.258178711
2023-02-03T00:04:00.484Z,5.288391113
2023-02-03T00:05:01.087Z,5.288391113
2023-02-03T00:06:01.643Z,5.268249512
2023-02-03T00:07:02.320Z,5.288391113
2023-02-03T00:08:02.942Z,5.288391113
2023-02-03T00:09:03.776Z,5.288391113
2023-02-03T00:10:04.339Z,5.298461914
2023-02-03T00:11:04.966Z,5.328674316
2023-02-03T00:12:06.652Z,5.348815918
2023-02-03T00:13:07.243Z,5.36895752
2023-02-03T00:14:07.935Z,5.37902832
2023-02-03T00:15:08.653Z,5.36895752
2023-02-03T00:16:09.283Z,5.37902832
2023-02-03T00:17:09.726Z,5.37902832
2023-02-03T00:18:10.632Z,5.409240723
2023-02-03T00:19:11.228Z,5.409240723
2023-02-03T00:20:12.440Z,5.399169922
2023-02-03T00:21:13.021Z,5.37902832
2023-02-03T00:22:14.111Z,5.36895752
2023-02-03T00:23:14.706Z,5.348815918
2023-02-03T00:24:15.477Z,5.36895752
2023-02-03T00:25:16.193Z,5.348815918
2023-02-03T00:26:16.836Z,5.328674316
2023-02-03T00:27:17.451Z,5.348815918
2023-02-03T00:28:18.161Z,5.36895752
2023-02-03T00:29:18.892Z,5.37902832
2023-02-03T00:30:20.157Z,5.37902832
2023-02-03T00:31:51.296Z,5.36895752
2023-02-03T00:32:52.444Z,5.348815918
2023-02-03T00:33:53.621Z,5.348815918
2023-02-03T00:34:54.376Z,5.36895752
2023-02-03T00:35:55.044Z,5.348815918
2023-02-03T00:36:55.721Z,5.328674316
2023-02-03T00:37:56.343Z,5.348815918
2023-02-03T00:38:57.349Z,5.328674316
2023-02-03T00:39:57.893Z,5.298461914
2023-02-03T00:40:58.524Z,5.268249512
2023-02-03T00:41:59.119Z,5.238037109
2023-02-03T00:43:00.325Z,5.217895508
2023-02-03T00:44:00.933Z,5.217895508
2023-02-03T00:45:01.483Z,5.187683105
2023-02-03T00:46:02.105Z,5.187683105
2023-02-03T00:47:02.619Z,5.167541504
2023-02-03T00:48:03.195Z,5.167541504
2023-02-03T00:49:03.676Z,5.187683105
2023-02-03T00:50:04.235Z,5.137329102
2023-02-03T00:51:04.774Z,5.086975098
2023-02-03T00:52:05.344Z,5.086975098
2023-02-03T00:53:06.929Z,5.076904297
2023-02-03T00:54:07.503Z,5.086975098
2023-02-03T00:55:08.062Z,5.076904297
2023-02-03T00:56:08.588Z,5.086975098
2023-02-03T00:57:09.155Z,5.086975098
2023-02-03T00:58:10.658Z,5.107116699
2023-02-03T00:59:11.278Z,5.137329102
2023-02-03T01:00:11.804Z,5.147399902
2023-02-03T01:01:12.413Z,5.167541504
2023-02-03T01:02:13.095Z,5.197753906
2023-02-03T01:03:14.550Z,5.197753906
2023-02-03T01:04:15.168Z,5.238037109
2023-02-03T01:05:15.680Z,5.258178711
2023-02-03T01:06:16.215Z,5.288391113
2023-02-03T01:07:16.910Z,5.298461914
2023-02-03T01:08:17.657Z,5.298461914
2023-02-03T01:09:18.316Z,5.298461914
2023-02-03T01:10:18.896Z,5.298461914
2023-02-03T01:11:49.909Z,5.288391113
2023-02-03T01:12:51.538Z,5.288391113
2023-02-03T01:13:52.106Z,5.288391113
2023-02-03T01:14:53.107Z,5.268249512
2023-02-03T01:15:53.702Z,5.298461914
2023-02-03T01:16:54.299Z,5.318603516
2023-02-03T01:17:54.733Z,5.318603516
2023-02-03T01:18:55.505Z,5.328674316
2023-02-03T01:19:56.186Z,5.328674316
2023-02-03T01:20:56.864Z,5.348815918
2023-02-03T01:21:57.481Z,5.348815918
2023-02-03T01:22:58.887Z,5.298461914
2023-02-03T01:23:59.609Z,5.318603516
2023-02-03T01:25:00.405Z,5.298461914
2023-02-03T01:26:01.176Z,5.298461914
2023-02-03T01:27:01.719Z,5.288391113
2023-02-03T01:28:02.258Z,5.298461914
2023-02-03T01:29:02.728Z,5.288391113
2023-02-03T01:30:03.459Z,5.298461914
2023-02-03T01:31:04.227Z,5.328674316
2023-02-03T01:32:04.782Z,5.318603516
2023-02-03T01:33:05.855Z,5.288391113
2023-02-03T01:34:07.385Z,5.298461914
2023-02-03T01:35:08.031Z,5.288391113
2023-02-03T01:36:08.779Z,5.298461914
2023-02-03T01:37:09.528Z,5.298461914
2023-02-03T01:38:10.459Z,5.288391113
2023-02-03T01:39:11.030Z,5.268249512
2023-02-03T01:40:11.629Z,5.268249512
2023-02-03T01:41:12.465Z,5.258178711
2023-02-03T01:42:13.142Z,5.268249512
2023-02-03T01:43:14.459Z,5.288391113
2023-02-03T01:44:15.008Z,5.288391113
2023-02-03T01:45:15.533Z,5.268249512
2023-02-03T01:46:16.313Z,5.268249512
2023-02-03T01:47:16.916Z,5.288391113
2023-02-03T01:48:17.688Z,5.288391113
2023-02-03T01:49:18.416Z,5.298461914
2023-02-03T01:50:49.473Z,5.318603516
2023-02-03T01:51:50.191Z,5.318603516
2023-02-03T01:52:51.727Z,5.348815918
2023-02-03T01:53:52.352Z,5.36895752
2023-02-03T01:54:53.039Z,5.36895752
2023-02-03T01:55:53.591Z,5.37902832
2023-02-03T01:56:54.323Z,5.37902832
2023-02-03T01:57:54.953Z,5.409240723
2023-02-03T01:58:55.634Z,5.409240723
2023-02-03T01:59:56.228Z,5.419311523
2023-02-03T02:00:56.811Z,5.439453125
2023-02-03T02:01:57.371Z,5.479736328
2023-02-03T02:02:59.116Z,5.469665527
2023-02-03T02:03:59.811Z,5.479736328
2023-02-03T02:05:00.523Z,5.469665527
2023-02-03T02:06:01.107Z,5.479736328
2023-02-03T02:07:01.852Z,5.479736328
2023-02-03T02:08:02.468Z,5.479736328
2023-02-03T02:09:04.070Z,5.479736328
2023-02-03T02:10:04.689Z,5.50994873
2023-02-03T02:11:05.274Z,5.50994873
2023-02-03T02:12:05.908Z,5.50994873
2023-02-03T02:13:07.107Z,5.550231934
2023-02-03T02:14:07.847Z,5.560302734
2023-02-03T02:15:08.653Z,5.580444336
2023-02-03T02:16:09.363Z,5.580444336
2023-02-03T02:17:09.856Z,5.580444336
2023-02-03T02:18:40.596Z,5.590515137
2023-02-03T02:20:11.886Z,5.600585938
2023-02-03T02:21:12.696Z,5.590515137
2023-02-03T02:22:13.347Z,5.600585938
2023-02-03T02:23:14.544Z,5.620727539
2023-02-03T02:24:15.861Z,5.600585938
2023-02-03T02:25:16.651Z,5.600585938
2023-02-03T02:26:17.438Z,5.620727539
2023-02-03T02:27:18.161Z,5.590515137
2023-02-03T02:28:49.046Z,5.580444336
2023-02-03T02:29:49.607Z,5.560302734
2023-02-03T02:30:50.455Z,5.560302734
2023-02-03T02:31:51.280Z,5.550231934
2023-02-03T02:32:52.716Z,5.580444336
2023-02-03T02:33:53.227Z,5.560302734
2023-02-03T02:34:54.419Z,5.520019531
2023-02-03T02:35:55.085Z,5.50994873
2023-02-03T02:36:55.796Z,5.50994873
2023-02-03T02:37:56.509Z,5.50994873
2023-02-03T02:38:57.049Z,5.50994873
2023-02-03T02:39:57.632Z,5.550231934
2023-02-03T02:40:58.158Z,5.580444336
2023-02-03T02:41:58.982Z,5.580444336
2023-02-03T02:43:00.680Z,5.620727539
2023-02-03T02:44:01.388Z,5.63079834
2023-02-03T02:45:01.976Z,5.650939941
2023-02-03T02:46:02.737Z,5.650939941
2023-02-03T02:47:03.374Z,5.671081543
2023-02-03T02:48:04.140Z,5.671081543
2023-02-03T02:49:04.859Z,5.691223145
2023-02-03T02:50:05.405Z,5.701293945
2023-02-03T02:51:06.023Z,5.731506348
2023-02-03T02:52:06.581Z,5.701293945
2023-02-03T02:53:08.200Z,5.731506348
2023-02-03T02:54:09.016Z,5.691223145
2023-02-03T02:55:09.633Z,5.661010742
2023-02-03T02:56:11.688Z,5.671081543
2023-02-03T02:57:10.988Z,5.661010742
2023-02-03T02:58:12.224Z,5.650939941
2023-02-03T02:59:12.928Z,5.620727539
2023-02-03T03:00:13.627Z,5.590515137
2023-02-03T03:01:14.233Z,5.590515137
2023-02-03T03:02:14.712Z,5.590515137
2023-02-03T03:03:16.261Z,5.560302734
2023-02-03T03:04:17.021Z,5.520019531
2023-02-03T03:05:48.839Z,5.50994873
2023-02-03T03:06:49.349Z,5.520019531
2023-02-03T03:07:49.953Z,5.520019531
2023-02-03T03:08:50.613Z,5.520019531
2023-02-03T03:09:51.319Z,5.520019531
2023-02-03T03:10:52.052Z,5.50994873
2023-02-03T03:11:52.822Z,5.560302734
2023-02-03T03:12:53.263Z,5.580444336
2023-02-03T03:13:54.355Z,5.580444336
2023-02-03T03:14:55.082Z,5.580444336
2023-02-03T03:15:55.874Z,5.580444336
2023-02-03T03:16:56.527Z,5.560302734
2023-02-03T03:17:57.029Z,5.580444336
2023-02-03T03:18:57.553Z,5.590515137
2023-02-03T03:19:58.257Z,5.580444336
2023-02-03T03:20:58.927Z,5.600585938
2023-02-03T03:21:59.639Z,5.590515137
2023-02-03T03:23:00.211Z,5.580444336
2023-02-03T03:24:01.398Z,5.580444336
2023-02-03T03:25:01.896Z,5.560302734
2023-02-03T03:26:02.672Z,5.550231934
2023-02-03T03:27:03.475Z,5.520019531
2023-02-03T03:28:04.252Z,5.550231934
2023-02-03T03:29:04.792Z,5.560302734
2023-02-03T03:30:05.317Z,5.560302734
2023-02-03T03:31:06.009Z,5.560302734
2023-02-03T03:32:06.732Z,5.580444336
2023-02-03T03:33:07.437Z,5.560302734
2023-02-03T03:34:08.840Z,5.560302734
2023-02-03T03:35:09.343Z,5.520019531
2023-02-03T03:36:09.925Z,5.550231934
2023-02-03T03:37:10.743Z,5.550231934
2023-02-03T03:38:11.569Z,5.550231934
2023-02-03T03:39:13.006Z,5.520019531
2023-02-03T03:40:13.630Z,5.520019531
2023-02-03T03:41:14.059Z,5.50994873
2023-02-03T03:42:14.773Z,5.489807129
2023-02-03T03:43:15.436Z,5.479736328
2023-02-03T03:44:17.022Z,5.479736328
2023-02-03T03:45:48.121Z,5.479736328
2023-02-03T03:46:48.741Z,5.479736328
2023-02-03T03:47:49.417Z,5.469665527
2023-02-03T03:48:50.154Z,5.449523926
2023-02-03T03:49:50.865Z,5.469665527
2023-02-03T03:50:51.409Z,5.479736328
2023-02-03T03:51:51.966Z,5.489807129
2023-02-03T03:52:52.506Z,5.489807129
2023-02-03T03:53:54.000Z,5.520019531
2023-02-03T03:54:54.666Z,5.520019531
2023-02-03T03:55:55.403Z,5.50994873
2023-02-03T03:56:55.896Z,5.520019531
2023-02-03T03:57:56.509Z,5.550231934
2023-02-03T03:58:57.165Z,5.560302734
2023-02-03T03:59:57.890Z,5.560302734
2023-02-03T04:00:58.608Z,5.560302734
2023-02-03T04:01:59.336Z,5.550231934
2023-02-03T04:02:59.813Z,5.520019531
2023-02-03T04:04:00.875Z,5.550231934
2023-02-03T04:05:01.715Z,5.50994873
2023-02-03T04:06:03.056Z,5.489807129
2023-02-03T04:07:03.786Z,5.50994873
2023-02-03T04:08:04.366Z,5.50994873
2023-02-03T04:09:04.936Z,5.489807129
2023-02-03T04:10:05.565Z,5.479736328
2023-02-03T04:11:06.416Z,5.469665527
2023-02-03T04:12:07.001Z,5.449523926
2023-02-03T04:13:07.540Z,5.409240723
2023-02-03T04:14:08.867Z,5.419311523
2023-02-03T04:15:09.564Z,5.419311523
2023-02-03T04:16:10.516Z,5.409240723
2023-02-03T04:17:11.285Z,5.399169922
2023-02-03T04:18:11.899Z,5.37902832
2023-02-03T04:19:12.427Z,5.348815918
2023-02-03T04:20:13.031Z,5.318603516
2023-02-03T04:21:13.705Z,5.318603516
2023-02-03T04:22:14.461Z,5.268249512
2023-02-03T04:23:15.100Z,5.258178711
2023-02-03T04:24:16.382Z,5.238037109
2023-02-03T04:25:47.713Z,5.238037109
2023-02-03T04:26:48.453Z,5.238037109
2023-02-03T04:27:49.161Z,5.227966309
2023-02-03T04:28:49.734Z,5.238037109
2023-02-03T04:29:50.295Z,5.258178711
2023-02-03T04:30:50.945Z,5.258178711
2023-02-03T04:31:52.380Z,5.288391113
2023-02-03T04:32:53.167Z,5.288391113
2023-02-03T04:33:54.651Z,5.318603516
2023-02-03T04:34:55.339Z,5.328674316
2023-02-03T04:35:55.851Z,5.328674316
2023-02-03T04:36:56.403Z,5.348815918
2023-02-03T04:37:57.099Z,5.328674316
2023-02-03T04:38:57.795Z,5.348815918
2023-02-03T04:39:58.499Z,5.36895752
2023-02-03T04:40:59.154Z,5.36895752
2023-02-03T04:42:00.758Z,5.328674316
2023-02-03T04:43:01.195Z,5.348815918
2023-02-03T04:44:02.599Z,5.36895752
2023-02-03T04:45:03.363Z,5.36895752
2023-02-03T04:46:04.098Z,5.36895752
2023-02-03T04:47:04.803Z,5.37902832
2023-02-03T04:48:05.560Z,5.37902832
2023-02-03T04:49:06.331Z,5.399169922
2023-02-03T04:50:07.039Z,5.409240723
2023-02-03T04:51:07.718Z,5.439453125
2023-02-03T04:52:08.287Z,5.419311523
2023-02-03T04:53:08.896Z,5.419311523
2023-02-03T04:54:10.079Z,5.419311523
2023-02-03T04:55:10.999Z,5.409240723
2023-02-03T04:56:11.789Z,5.399169922
2023-02-03T04:57:12.394Z,5.399169922
2023-02-03T04:58:13.027Z,5.419311523
2023-02-03T04:59:13.567Z,5.409240723
2023-02-03T05:00:14.098Z,5.399169922
2023-02-03T05:01:14.756Z,5.399169922
2023-02-03T05:02:15.245Z,5.37902832
2023-02-03T05:03:15.815Z,5.399169922
2023-02-03T05:04:47.872Z,5.399169922
2023-02-03T05:05:48.536Z,5.37902832
2023-02-03T05:06:49.214Z,5.399169922
2023-02-03T05:07:49.840Z,5.399169922
2023-02-03T05:08:50.494Z,5.399169922
2023-02-03T05:09:50.996Z,5.399169922
2023-02-03T05:10:51.619Z,5.399169922
2023-02-03T05:11:52.263Z,5.37902832
2023-02-03T05:12:53.023Z,5.36895752
2023-02-03T05:13:53.711Z,5.37902832
2023-02-03T05:14:54.936Z,5.36895752
2023-02-03T05:15:55.475Z,5.36895752
2023-02-03T05:16:56.119Z,5.348815918
2023-02-03T05:17:56.512Z,5.348815918
2023-02-03T05:18:57.085Z,5.348815918
2023-02-03T05:19:57.621Z,5.36895752
2023-02-03T05:20:58.111Z,5.348815918
2023-02-03T05:21:58.653Z,5.318603516
2023-02-03T05:22:59.325Z,5.328674316
2023-02-03T05:24:00.656Z,5.348815918
2023-02-03T05:25:01.346Z,5.36895752
2023-02-03T05:26:01.942Z,5.348815918
2023-02-03T05:27:02.476Z,5.36895752
2023-02-03T05:28:02.959Z,5.328674316
2023-02-03T05:29:04.646Z,5.288391113
2023-02-03T05:30:05.310Z,5.268249512
2023-02-03T05:31:06.138Z,5.227966309
2023-02-03T05:32:06.752Z,5.187683105
2023-02-03T05:33:07.291Z,5.137329102
2023-02-03T05:34:08.567Z,5.086975098
2023-02-03T05:35:09.250Z,5.076904297
2023-02-03T05:36:09.952Z,5.046691895
2023-02-03T05:37:10.649Z,5.036621094
2023-02-03T05:38:11.092Z,5.016479492
2023-02-03T05:39:11.724Z,5.006408691
2023-02-03T05:40:12.354Z,4.966125488
2023-02-03T05:41:13.053Z,4.966125488
2023-02-03T05:42:13.792Z,4.98626709
2023-02-03T05:43:14.266Z,4.925842285
2023-02-03T05:44:15.652Z,4.875488281
2023-02-03T05:45:46.680Z,4.875488281
2023-02-03T05:46:47.118Z,4.905700684
2023-02-03T05:47:47.630Z,4.905700684
2023-02-03T05:48:48.097Z,4.875488281
2023-02-03T05:49:48.643Z,4.85534668
2023-02-03T05:50:49.226Z,4.774780273
2023-02-03T05:51:49.770Z,4.744567871
2023-02-03T05:52:50.291Z,4.684143066
2023-02-03T05:53:50.778Z,4.653930664
2023-02-03T05:54:51.949Z,4.653930664
2023-02-03T05:55:52.524Z,4.674072266
2023-02-03T05:56:53.121Z,4.643859863
2023-02-03T05:57:53.787Z,4.653930664
2023-02-03T05:58:54.203Z,4.684143066
2023-02-03T05:59:54.706Z,4.674072266
2023-02-03T06:00:55.225Z,4.643859863
2023-02-03T06:01:55.839Z,4.613647461
2023-02-03T06:02:56.401Z,4.593505859
2023-02-03T06:03:57.742Z,4.573364258
2023-02-03T06:04:59.069Z,4.543151855
2023-02-03T06:05:59.553Z,4.533081055
2023-02-03T06:07:00.121Z,4.502868652
2023-02-03T06:08:00.760Z,4.492797852
2023-02-03T06:09:01.359Z,4.502868652
2023-02-03T06:10:01.869Z,4.543151855
2023-02-03T06:11:02.354Z,4.573364258
2023-02-03T06:12:02.861Z,4.543151855
2023-02-03T06:13:04.402Z,4.533081055
2023-02-03T06:14:04.724Z,4.502868652
2023-02-03T06:15:05.920Z,4.462585449
2023-02-03T06:16:06.377Z,4.442443848
2023-02-03T06:17:06.912Z,4.422302246
2023-02-03T06:18:07.479Z,4.382019043
2023-02-03T06:19:08.060Z,4.34173584
2023-02-03T06:20:09.359Z,4.281311035
2023-02-03T06:21:09.932Z,4.251098633
2023-02-03T06:22:10.619Z,4.241027832
2023-02-03T06:23:11.247Z,4.241027832
2023-02-03T06:24:11.810Z,4.241027832
2023-02-03T06:25:13.382Z,4.241027832
2023-02-03T06:26:13.964Z,4.261169434
2023-02-03T06:27:14.483Z,4.251098633
2023-02-03T06:28:15.222Z,4.281311035
2023-02-03T06:29:53.586Z,4.281311035
2023-02-03T06:30:47.071Z,4.251098633
2023-02-03T06:31:47.738Z,4.251098633
2023-02-03T06:32:48.060Z,4.261169434
2023-02-03T06:33:48.686Z,4.291381836
2023-02-03T06:34:50.095Z,4.281311035
2023-02-03T06:35:50.629Z,4.291381836
2023-02-03T06:36:51.240Z,4.34173584
2023-02-03T06:37:51.699Z,4.34173584
2023-02-03T06:38:52.214Z,4.361877441
2023-02-03T06:39:53.011Z,4.351806641
2023-02-03T06:40:53.561Z,4.34173584
2023-02-03T06:41:54.142Z,4.321594238
2023-02-03T06:42:54.686Z,4.311523438
2023-02-03T06:43:55.339Z,4.321594238
2023-02-03T06:44:56.596Z,4.321594238
2023-02-03T06:45:57.278Z,4.321594238
2023-02-03T06:46:57.832Z,4.321594238
2023-02-03T06:47:58.437Z,4.321594238
2023-02-03T06:48:58.958Z,4.321594238
2023-02-03T06:49:59.539Z,4.351806641
2023-02-03T06:51:00.136Z,4.351806641
2023-02-03T06:52:00.711Z,4.351806641
2023-02-03T06:53:01.231Z,4.321594238
2023-02-03T06:54:01.814Z,4.34173584
2023-02-03T06:55:03.061Z,4.321594238
2023-02-03T06:56:03.613Z,4.311523438
2023-02-03T06:57:04.186Z,4.291381836
2023-02-03T06:58:04.809Z,4.311523438
2023-02-03T06:59:05.466Z,4.281311035
2023-02-03T07:00:05.928Z,4.281311035
2023-02-03T07:01:06.484Z,4.311523438
2023-02-03T07:02:07.061Z,4.291381836
2023-02-03T07:03:07.651Z,4.291381836
2023-02-03T07:04:08.181Z,4.311523438
2023-02-03T07:05:09.355Z,4.321594238
2023-02-03T07:06:10.850Z,4.321594238
2023-02-03T07:07:11.463Z,4.34173584
2023-02-03T07:08:12.058Z,4.361877441
2023-02-03T07:09:12.658Z,4.361877441
2023-02-03T07:10:13.168Z,4.361877441
2023-02-03T07:11:13.700Z,4.382019043
2023-02-03T07:12:14.242Z,4.361877441
2023-02-03T07:13:15.271Z,4.361877441
2023-02-03T07:14:47.145Z,4.382019043
2023-02-03T07:15:47.907Z,4.351806641
2023-02-03T07:16:48.421Z,4.34173584
2023-02-03T07:17:48.941Z,4.311523438
2023-02-03T07:18:49.541Z,4.311523438
2023-02-03T07:19:50.096Z,4.281311035
2023-02-03T07:20:50.609Z,4.261169434
2023-02-03T07:21:51.166Z,4.261169434
2023-02-03T07:22:51.734Z,4.251098633
2023-02-03T07:23:52.357Z,4.241027832
2023-02-03T07:24:52.989Z,4.21081543
2023-02-03T07:25:54.375Z,4.200744629
2023-02-03T07:26:54.949Z,4.200744629
2023-02-03T07:27:55.555Z,4.21081543
2023-02-03T07:28:56.102Z,4.170532227
2023-02-03T07:29:56.708Z,4.170532227
2023-02-03T07:30:57.467Z,4.170532227
2023-02-03T07:31:58.044Z,4.180603027
2023-02-03T07:32:58.474Z,4.200744629
2023-02-03T07:33:59.123Z,4.21081543
2023-02-03T07:35:00.588Z,4.251098633
2023-02-03T07:36:01.280Z,4.261169434
2023-02-03T07:37:01.810Z,4.251098633
2023-02-03T07:38:02.313Z,4.241027832
2023-02-03T07:39:02.950Z,4.241027832
2023-02-03T07:40:03.550Z,4.21081543
2023-02-03T07:41:04.212Z,4.261169434
2023-02-03T07:42:05.626Z,4.261169434
2023-02-03T07:43:06.248Z,4.291381836
2023-02-03T07:44:06.949Z,4.311523438
2023-02-03T07:45:08.215Z,4.321594238
2023-02-03T07:46:08.981Z,4.251098633
2023-02-03T07:47:10.098Z,4.21081543
2023-02-03T07:48:09.950Z,4.180603027
2023-02-03T07:49:10.614Z,4.140319824
2023-02-03T07:50:11.270Z,4.140319824
2023-02-03T07:51:11.963Z,4.130249023
2023-02-03T07:52:13.018Z,4.140319824
2023-02-03T07:53:13.627Z,4.140319824
2023-02-03T07:54:14.126Z,4.170532227
2023-02-03T07:55:45.857Z,4.180603027
2023-02-03T07:56:46.439Z,4.200744629
2023-02-03T07:57:47.079Z,4.251098633
2023-02-03T07:58:47.696Z,4.261169434
2023-02-03T07:59:48.431Z,4.321594238
2023-02-03T08:00:48.798Z,4.351806641
2023-02-03T08:01:49.432Z,4.382019043
2023-02-03T08:02:50.026Z,4.422302246
2023-02-03T08:03:50.731Z,4.442443848
2023-02-03T08:04:51.374Z,4.47265625
2023-02-03T08:05:52.984Z,4.492797852
2023-02-03T08:06:53.545Z,4.512939453
2023-02-03T08:07:54.210Z,4.613647461
2023-02-03T08:08:55.418Z,4.643859863
2023-02-03T08:09:55.918Z,4.643859863
2023-02-03T08:10:56.478Z,4.674072266
2023-02-03T08:11:57.045Z,4.684143066
2023-02-03T08:12:57.618Z,4.714355469
2023-02-03T08:13:58.227Z,4.744567871
2023-02-03T08:14:58.854Z,4.754638672
2023-02-03T08:15:59.972Z,4.774780273
2023-02-03T08:17:00.478Z,4.794921875
2023-02-03T08:18:01.056Z,4.804992676
2023-02-03T08:19:01.684Z,4.825134277
2023-02-03T08:20:02.246Z,4.85534668
2023-02-03T08:21:02.763Z,4.86541748
2023-02-03T08:22:03.305Z,4.895629883
2023-02-03T08:23:03.834Z,4.905700684
2023-02-03T08:24:04.669Z,4.956054688
2023-02-03T08:25:05.272Z,4.966125488
2023-02-03T08:26:06.893Z,5.006408691
2023-02-03T08:27:07.434Z,5.056762695
2023-02-03T08:28:08.002Z,5.086975098
2023-02-03T08:29:08.484Z,5.107116699
2023-02-03T08:30:09.069Z,5.107116699
2023-02-03T08:31:09.720Z,5.1171875
2023-02-03T08:32:10.513Z,5.137329102
2023-02-03T08:33:11.691Z,5.167541504
2023-02-03T08:34:12.200Z,5.187683105
2023-02-03T08:35:13.624Z,5.238037109
2023-02-03T08:36:45.499Z,5.227966309
2023-02-03T08:37:46.238Z,5.238037109
2023-02-03T08:38:46.749Z,5.227966309
2023-02-03T08:39:47.298Z,5.227966309
2023-02-03T08:40:47.932Z,5.238037109
2023-02-03T08:41:48.863Z,5.238037109
2023-02-03T08:42:49.327Z,5.268249512
2023-02-03T08:43:49.927Z,5.268249512
2023-02-03T08:44:50.480Z,5.288391113
2023-02-03T08:45:51.866Z,5.318603516
2023-02-03T08:46:52.510Z,5.288391113
2023-02-03T08:47:53.279Z,5.298461914
2023-02-03T08:48:53.780Z,5.328674316
2023-02-03T08:49:54.332Z,5.328674316
2023-02-03T08:50:54.839Z,5.348815918
2023-02-03T08:51:55.531Z,5.328674316
2023-02-03T08:52:56.227Z,5.348815918
2023-02-03T08:53:56.859Z,5.37902832
2023-02-03T08:54:57.425Z,5.409240723
2023-02-03T08:55:58.841Z,5.419311523
2023-02-03T08:56:59.436Z,5.439453125
2023-02-03T08:58:00.063Z,5.439453125
2023-02-03T08:59:00.620Z,5.439453125
2023-02-03T09:00:01.188Z,5.439453125
2023-02-03T09:01:01.829Z,5.409240723
2023-02-03T09:02:02.344Z,5.419311523
2023-02-03T09:03:02.906Z,5.409240723
2023-02-03T09:04:03.565Z,5.409240723
2023-02-03T09:05:04.219Z,5.419311523
2023-02-03T09:06:05.385Z,5.419311523
2023-02-03T09:07:05.928Z,5.439453125
2023-02-03T09:08:06.520Z,5.439453125
2023-02-03T09:09:07.128Z,5.479736328
2023-02-03T09:10:07.730Z,5.479736328
2023-02-03T09:11:08.296Z,5.489807129
2023-02-03T09:12:09.010Z,5.520019531
2023-02-03T09:13:09.493Z,5.550231934
2023-02-03T09:14:10.417Z,5.580444336
2023-02-03T09:15:11.125Z,5.580444336
2023-02-03T09:16:12.376Z,5.620727539
2023-02-03T09:17:12.934Z,5.650939941
2023-02-03T09:18:44.175Z,5.661010742
2023-02-03T09:19:44.819Z,5.661010742
2023-02-03T09:20:45.333Z,5.671081543
2023-02-03T09:21:48.325Z,5.691223145
2023-02-03T09:22:46.643Z,5.691223145
2023-02-03T09:23:47.168Z,5.771789551
2023-02-03T09:24:47.755Z,5.771789551
2023-02-03T09:25:49.630Z,5.771789551
2023-02-03T09:26:49.654Z,5.771789551
2023-02-03T09:27:50.357Z,5.751647949
2023-02-03T09:28:50.803Z,5.741577148
2023-02-03T09:29:51.374Z,5.701293945
2023-02-03T09:30:51.960Z,5.691223145
2023-02-03T09:31:52.655Z,5.671081543
2023-02-03T09:32:53.078Z,5.691223145
2023-02-03T09:33:54.331Z,5.691223145
2023-02-03T09:34:54.894Z,5.701293945
2023-02-03T09:35:55.374Z,5.701293945
2023-02-03T09:36:56.810Z,5.731506348
2023-02-03T09:37:57.425Z,5.751647949
2023-02-03T09:38:57.961Z,5.802001953
2023-02-03T09:39:58.480Z,5.832214355
2023-02-03T09:41:10.585Z,5.842285156
2023-02-03T09:42:01.067Z,5.842285156
2023-02-03T09:43:00.244Z,5.852355957
2023-02-03T09:44:00.857Z,5.872497559
2023-02-03T09:45:01.427Z,5.922851563
2023-02-03T09:46:02.626Z,5.953063965
2023-02-03T09:47:03.332Z,5.993347168
2023-02-03T09:48:03.867Z,5.993347168
2023-02-03T09:49:04.354Z,6.01348877
2023-02-03T09:50:04.872Z,6.01348877
2023-02-03T09:51:05.653Z,6.01348877
2023-02-03T09:52:06.133Z,6.01348877
2023-02-03T09:53:06.696Z,6.01348877
2023-02-03T09:54:07.233Z,5.993347168
2023-02-03T09:55:07.785Z,6.02355957
2023-02-03T09:56:09.091Z,6.02355957
2023-02-03T09:57:10.007Z,6.02355957
2023-02-03T09:58:10.119Z,6.033630371
2023-02-03T09:59:10.619Z,6.053771973
2023-02-03T10:00:11.107Z,6.083984375
2023-02-03T10:01:11.691Z,6.104125977
2023-02-03T10:02:12.214Z,6.114196777
2023-02-03T10:03:13.143Z,6.174621582
2023-02-03T10:04:43.909Z,6.194763184
2023-02-03T10:05:45.082Z,6.204833984
2023-02-03T10:06:46.722Z,6.235046387
2023-02-03T10:07:48.389Z,6.265258789
2023-02-03T10:08:47.842Z,6.265258789
2023-02-03T10:09:48.348Z,6.295471191
2023-02-03T10:10:48.902Z,6.315612793
2023-02-03T10:11:49.409Z,6.325683594
2023-02-03T10:12:50.209Z,6.355895996
2023-02-03T10:13:50.856Z,6.376037598
2023-02-03T10:14:51.379Z,6.396179199
2023-02-03T10:15:51.992Z,6.416320801
2023-02-03T10:16:53.559Z,6.446533203
2023-02-03T10:17:54.039Z,6.446533203
2023-02-03T10:18:54.529Z,6.456604004
2023-02-03T10:19:55.013Z,6.476745605
2023-02-03T10:20:55.511Z,6.506958008
2023-02-03T10:21:56.065Z,6.506958008
2023-02-03T10:22:56.625Z,6.506958008
2023-02-03T10:23:57.303Z,6.527099609
2023-02-03T10:24:57.763Z,6.527099609
2023-02-03T10:25:59.063Z,6.53717041
2023-02-03T10:27:00.112Z,6.53717041
2023-02-03T10:28:01.454Z,6.567382813
2023-02-03T10:29:01.972Z,6.577453613
2023-02-03T10:30:02.486Z,6.597595215
2023-02-03T10:31:03.266Z,6.597595215
2023-02-03T10:32:03.827Z,6.607666016
2023-02-03T10:33:04.551Z,6.607666016
2023-02-03T10:34:05.237Z,6.627807617
2023-02-03T10:35:05.717Z,6.647949219
2023-02-03T10:36:07.084Z,6.678161621
2023-02-03T10:37:07.619Z,6.688232422
2023-02-03T10:38:08.202Z,6.708374023
2023-02-03T10:39:08.904Z,6.728515625
2023-02-03T10:40:09.734Z,6.728515625
2023-02-03T10:41:10.535Z,6.758728027
2023-02-03T10:42:10.983Z,6.778869629
2023-02-03T10:43:11.542Z,6.778869629
2023-02-03T10:44:12.125Z,6.758728027
2023-02-03T10:45:43.092Z,6.78894043
2023-02-03T10:46:44.497Z,6.809082031
2023-02-03T10:47:44.842Z,6.809082031
2023-02-03T10:48:45.401Z,6.829223633
2023-02-03T10:49:46.041Z,6.829223633
2023-02-03T10:50:46.432Z,6.829223633
2023-02-03T10:51:47.079Z,6.869506836
2023-02-03T10:52:47.793Z,6.859436035
2023-02-03T10:53:48.640Z,6.869506836
2023-02-03T10:54:49.184Z,6.899719238
2023-02-03T10:55:49.687Z,6.899719238
2023-02-03T10:56:50.229Z,6.899719238
2023-02-03T10:57:51.565Z,6.899719238
2023-02-03T10:58:52.083Z,6.899719238
2023-02-03T10:59:52.787Z,6.889648438
2023-02-03T11:00:53.430Z,6.899719238
2023-02-03T11:01:54.053Z,6.909790039
2023-02-03T11:02:54.998Z,6.909790039
2023-02-03T11:03:55.732Z,6.909790039
2023-02-03T11:04:56.544Z,6.929931641
2023-02-03T11:05:57.191Z,6.909790039
2023-02-03T11:06:58.431Z,6.960144043